createdAt,value
2023-11-11T00:00:33.940Z,5.69
2023-11-11T00:03:36.509Z,5.72
2023-11-11T00:06:38.576Z,5.71
2023-11-11T00:09:40.447Z,5.79
2023-11-11T00:12:42.521Z,5.66
2023-11-11T00:15:44.910Z,5.71
2023-11-11T00:18:46.781Z,5.72
2023-11-11T00:21:53.441Z,5.68
2023-11-11T00:24:55.933Z,5.71
2023-11-11T00:27:57.777Z,5.61
2023-11-11T00:30:59.711Z,5.54
2023-11-11T00:34:02.778Z,5.63
2023-11-11T00:37:04.900Z,5.61
2023-11-11T00:40:08.129Z,5.70
2023-11-11T00:43:11.396Z,5.72
2023-11-11T00:46:13.459Z,5.72
2023-11-11T00:49:15.307Z,5.74
2023-11-11T00:52:21.365Z,5.78
2023-11-11T00:55:23.285Z,5.78
2023-11-11T00:58:25.144Z,5.77
2023-11-11T01:01:27.038Z,5.75
2023-11-11T01:04:29.237Z,5.81
2023-11-11T01:07:31.159Z,5.80
2023-11-11T01:10:38.306Z,5.87
2023-11-11T01:13:40.202Z,5.78
2023-11-11T01:16:42.400Z,5.76
2023-11-11T01:19:44.335Z,5.76
2023-11-11T01:22:46.319Z,5.74
2023-11-11T01:25:48.270Z,5.73
2023-11-11T01:28:50.252Z,5.66
2023-11-11T01:31:52.218Z,5.66
2023-11-11T01:34:54.139Z,5.79
2023-11-11T01:37:56.086Z,5.69
2023-11-11T01:40:58.050Z,5.51
2023-11-11T01:44:00.201Z,5.60
2023-11-11T01:47:07.507Z,5.57
2023-11-11T01:50:11.149Z,5.58
2023-11-11T01:53:16.821Z,5.69
2023-11-11T01:56:18.947Z,5.67
2023-11-11T01:59:21.674Z,5.64
2023-11-11T02:02:23.835Z,5.64
2023-11-11T02:05:26.187Z,5.75
2023-11-11T02:08:32.439Z,5.75
2023-11-11T02:11:34.649Z,5.77
2023-11-11T02:14:38.546Z,5.80
2023-11-11T02:17:41.526Z,5.80
2023-11-11T02:20:43.627Z,5.85
2023-11-11T02:23:50.054Z,5.87
2023-11-11T02:26:52.196Z,5.84
2023-11-11T02:29:54.034Z,5.97
2023-11-11T02:32:55.927Z,6.03
2023-11-11T02:35:58.021Z,6.10
2023-11-11T02:38:59.920Z,6.04
2023-11-11T02:42:02.053Z,6.02
2023-11-11T02:45:04.244Z,5.90
2023-11-11T02:48:08.004Z,5.95
2023-11-11T02:51:10.852Z,5.84
2023-11-11T02:54:12.922Z,5.90
2023-11-11T02:57:14.796Z,5.88
2023-11-11T03:00:18.187Z,5.89
2023-11-11T03:03:20.219Z,5.89
2023-11-11T03:06:23.165Z,6.00
2023-11-11T03:09:25.049Z,6.00
2023-11-11T03:12:27.043Z,6.01
2023-11-11T03:15:30.297Z,6.04
2023-11-11T03:18:32.450Z,6.03
2023-11-11T03:21:35.105Z,6.04
2023-11-11T03:24:37.126Z,6.01
2023-11-11T03:27:39.579Z,6.11
2023-11-11T03:30:42.173Z,6.02
2023-11-11T03:33:44.841Z,6.02
2023-11-11T03:36:46.718Z,6.01
2023-11-11T03:39:48.692Z,6.02
2023-11-11T03:42:50.750Z,6.06
2023-11-11T03:45:52.644Z,6.09
2023-11-11T03:48:54.554Z,6.10
2023-11-11T03:51:56.438Z,6.08
2023-11-11T03:54:58.328Z,6.09
2023-11-11T03:58:00.346Z,6.01
2023-11-11T04:01:02.232Z,6.01
2023-11-11T04:04:04.517Z,6.04
2023-11-11T04:07:06.483Z,6.11
2023-11-11T04:10:09.064Z,6.13
2023-11-11T04:13:13.288Z,6.07
2023-11-11T04:16:16.017Z,6.05
2023-11-11T04:19:18.145Z,6.23
2023-11-11T04:22:20.126Z,6.16
2023-11-11T04:25:22.169Z,6.17
2023-11-11T04:28:26.018Z,6.17
2023-11-11T04:31:28.662Z,6.21
2023-11-11T04:34:31.211Z,6.21
2023-11-11T04:37:33.453Z,6.26
2023-11-11T04:40:37.416Z,6.22
2023-11-11T04:43:39.386Z,6.34
2023-11-11T04:46:41.222Z,6.33
2023-11-11T04:49:43.144Z,6.26
2023-11-11T04:52:46.912Z,6.13
2023-11-11T04:55:49.528Z,6.23
2023-11-11T04:58:51.438Z,6.25
2023-11-11T05:01:55.064Z,6.21
2023-11-11T05:04:56.946Z,6.12
2023-11-11T05:07:59.059Z,6.06
2023-11-11T05:11:01.081Z,6.07
2023-11-11T05:14:05.908Z,6.05
2023-11-11T05:17:08.929Z,5.95
2023-11-11T05:20:12.186Z,6.01
2023-11-11T05:23:14.265Z,6.08
2023-11-11T05:26:16.890Z,6.15
2023-11-11T05:29:18.909Z,6.20
2023-11-11T05:32:20.796Z,6.24
2023-11-11T05:35:22.688Z,6.12
2023-11-11T05:38:24.810Z,6.03
2023-11-11T05:41:28.243Z,5.97
2023-11-11T05:44:30.536Z,5.97
2023-11-11T05:47:32.553Z,6.02
2023-11-11T05:50:34.525Z,6.03
2023-11-11T05:53:36.547Z,6.00
2023-11-11T05:56:41.980Z,6.01
2023-11-11T05:59:43.734Z,5.97
2023-11-11T06:02:45.894Z,5.99
2023-11-11T06:05:47.875Z,5.94
2023-11-11T06:08:49.834Z,5.94
2023-11-11T06:11:51.970Z,6.01
2023-11-11T06:14:53.902Z,6.12
2023-11-11T06:17:56.299Z,6.13
2023-11-11T06:20:58.297Z,6.07
2023-11-11T06:24:00.681Z,6.15
2023-11-11T06:27:02.759Z,6.23
2023-11-11T06:30:10.047Z,6.33
2023-11-11T06:33:12.411Z,6.45
2023-11-11T06:36:16.674Z,6.44
2023-11-11T06:39:18.646Z,6.41
2023-11-11T06:42:20.512Z,6.50
2023-11-11T06:45:23.301Z,6.63
2023-11-11T06:48:25.368Z,6.57
2023-11-11T06:51:28.956Z,6.66
2023-11-11T06:54:31.483Z,6.72
2023-11-11T06:57:33.441Z,6.73
2023-11-11T07:00:35.504Z,6.74
2023-11-11T07:03:40.977Z,6.59
2023-11-11T07:06:43.019Z,6.57
2023-11-11T07:09:46.021Z,6.57
2023-11-11T07:12:48.350Z,6.54
2023-11-11T07:15:51.514Z,6.48
2023-11-11T07:18:54.496Z,6.41
2023-11-11T07:25:01.984Z,6.37
2023-11-11T07:28:07.457Z,6.35
2023-11-11T07:31:09.475Z,6.33
2023-11-11T07:34:13.115Z,6.41
2023-11-11T07:37:15.166Z,6.40
2023-11-11T07:40:17.628Z,6.54
2023-11-11T07:43:19.778Z,6.53
2023-11-11T07:46:21.704Z,6.53
2023-11-11T07:49:23.656Z,6.47
2023-11-11T07:52:26.311Z,6.39
2023-11-11T07:55:28.210Z,6.46
2023-11-11T08:01:36.646Z,6.29
2023-11-11T08:04:39.234Z,6.36
2023-11-11T08:07:41.114Z,6.42
2023-11-11T08:10:43.651Z,6.26
2023-11-11T08:13:45.660Z,6.28
2023-11-11T08:16:47.533Z,6.39
2023-11-11T08:19:49.454Z,6.27
2023-11-11T08:22:51.839Z,6.39
2023-11-11T08:25:53.761Z,6.28
2023-11-11T08:28:55.734Z,6.43
2023-11-11T08:31:58.377Z,6.41
2023-11-11T08:35:00.333Z,6.43
2023-11-11T08:38:02.287Z,6.30
2023-11-11T08:41:11.056Z,6.16
2023-11-11T08:44:13.111Z,6.37
2023-11-11T08:47:17.147Z,6.26
2023-11-11T08:50:22.376Z,6.16
2023-11-11T08:53:25.232Z,6.21
2023-11-11T08:56:32.617Z,6.35
2023-11-11T08:59:35.099Z,6.35
2023-11-11T09:02:37.586Z,6.19
2023-11-11T09:05:39.670Z,6.23
2023-11-11T09:08:43.423Z,6.27
2023-11-11T09:11:45.532Z,6.29
2023-11-11T09:14:47.577Z,6.39
2023-11-11T09:17:49.693Z,6.44
2023-11-11T09:20:51.749Z,6.37
2023-11-11T09:23:54.095Z,6.36
2023-11-11T09:30:01.651Z,6.42
2023-11-11T09:33:05.123Z,6.26
2023-11-11T09:36:07.658Z,6.53
2023-11-11T09:39:10.141Z,6.70
2023-11-11T09:42:12.752Z,6.49
2023-11-11T09:48:20.854Z,6.48
2023-11-11T09:51:24.065Z,6.52
2023-11-11T09:54:26.966Z,6.40
2023-11-11T09:57:31.018Z,6.49
2023-11-11T10:00:34.290Z,6.24
2023-11-11T10:03:36.702Z,6.34
2023-11-11T10:06:40.408Z,6.41
2023-11-11T10:09:42.963Z,6.39
2023-11-11T10:12:45.145Z,6.30
2023-11-11T10:15:47.379Z,6.30
2023-11-11T10:18:59.511Z,6.23
2023-11-11T10:22:01.525Z,6.26
2023-11-11T10:25:05.643Z,6.37
2023-11-11T10:28:17.282Z,6.31
2023-11-11T10:31:23.875Z,6.25
2023-11-11T10:34:26.154Z,6.41
2023-11-11T10:37:30.422Z,6.40
2023-11-11T10:40:32.661Z,6.30
2023-11-11T10:43:37.747Z,6.16
2023-11-11T10:46:43.897Z,6.28
2023-11-11T10:49:47.017Z,6.13
2023-11-11T10:52:52.673Z,6.07
2023-11-11T10:55:55.796Z,6.05
2023-11-11T10:58:59.786Z,5.90
2023-11-11T11:02:02.525Z,5.76
2023-11-11T11:05:11.084Z,6.01
2023-11-11T11:08:18.666Z,5.98
2023-11-11T11:11:36.237Z,5.85
2023-11-11T11:14:52.583Z,5.99
2023-11-11T11:17:55.197Z,5.92
2023-11-11T11:21:03.902Z,5.89
2023-11-11T11:24:12.462Z,5.85
2023-11-11T11:27:14.378Z,5.85
2023-11-11T11:30:25.422Z,5.99
2023-11-11T11:33:28.331Z,5.98
2023-11-11T11:36:30.932Z,6.06
2023-11-11T11:40:06.273Z,6.02
2023-11-11T11:43:11.205Z,6.01
2023-11-11T11:46:13.208Z,5.98
2023-11-11T11:49:15.154Z,5.81
2023-11-11T11:52:20.196Z,5.82
2023-11-11T11:55:23.562Z,5.88
2023-11-11T11:58:26.929Z,5.85
2023-11-11T12:01:34.174Z,5.91
2023-11-11T12:04:36.863Z,6.02
2023-11-11T12:07:39.021Z,6.07
2023-11-11T12:10:48.540Z,6.14
2023-11-11T12:13:51.852Z,6.10
2023-11-11T12:16:54.205Z,6.12
2023-11-11T12:19:56.503Z,6.10
2023-11-11T12:22:59.305Z,6.03
2023-11-11T12:26:02.602Z,6.11
2023-11-11T12:29:05.635Z,6.14
2023-11-11T12:32:12.416Z,6.17
2023-11-11T12:35:14.517Z,6.27
2023-11-11T12:38:30.012Z,6.12
2023-11-11T12:41:32.090Z,6.13
2023-11-11T12:44:40.186Z,6.01
2023-11-11T12:47:53.654Z,6.06
2023-11-11T12:50:55.693Z,5.89
2023-11-11T12:53:58.651Z,5.81
2023-11-11T12:57:01.214Z,5.84
2023-11-11T13:00:08.103Z,5.97
2023-11-11T13:03:11.166Z,5.99
2023-11-11T13:06:15.971Z,6.00
2023-11-11T13:09:23.224Z,5.97
2023-11-11T13:12:25.326Z,5.98
2023-11-11T13:15:27.934Z,5.95
2023-11-11T13:18:30.151Z,6.01
2023-11-11T13:21:33.775Z,5.77
2023-11-11T13:24:40.177Z,5.76
2023-11-11T13:27:45.073Z,5.74
2023-11-11T13:30:54.969Z,5.68
2023-11-11T13:33:58.060Z,5.82
2023-11-11T13:37:01.408Z,5.77
2023-11-11T13:40:14.812Z,5.89
2023-11-11T13:43:17.924Z,5.87
2023-11-11T13:46:23.065Z,5.98
2023-11-11T13:49:25.288Z,5.92
2023-11-11T13:52:28.528Z,6.05
2023-11-11T13:55:32.524Z,5.88
2023-11-11T13:58:35.614Z,5.92
2023-11-11T14:01:59.425Z,5.88
2023-11-11T14:05:02.098Z,5.74
2023-11-11T14:08:06.466Z,5.74
2023-11-11T14:11:09.435Z,5.73
2023-11-11T14:14:13.990Z,5.83
2023-11-11T14:17:16.362Z,5.75
2023-11-11T14:20:20.190Z,5.72
2023-11-11T14:23:22.691Z,5.64
2023-11-11T14:26:25.404Z,5.50
2023-11-11T14:29:27.484Z,5.64
2023-11-11T14:32:29.816Z,5.50
2023-11-11T14:35:31.974Z,5.49
2023-11-11T14:38:34.115Z,5.51
2023-11-11T14:41:41.755Z,5.41
2023-11-11T14:44:43.961Z,5.47
2023-11-11T14:47:48.002Z,5.39
2023-11-11T14:50:51.261Z,5.46
2023-11-11T14:53:53.748Z,5.30
2023-11-11T14:56:56.028Z,5.36
2023-11-11T14:59:58.231Z,5.34
2023-11-11T15:03:01.296Z,5.28
2023-11-11T15:06:03.726Z,5.31
2023-11-11T15:09:06.860Z,5.33
2023-11-11T15:12:13.955Z,5.36
2023-11-11T15:15:16.385Z,5.27
2023-11-11T15:18:18.672Z,5.09
2023-11-11T15:21:23.336Z,5.10
2023-11-11T15:24:26.573Z,5.24
2023-11-11T15:27:28.689Z,5.01
2023-11-11T15:30:31.617Z,5.02
2023-11-11T15:33:33.776Z,5.02
2023-11-11T15:36:37.262Z,4.92
2023-11-11T15:39:39.321Z,4.95
2023-11-11T15:42:41.573Z,5.00
2023-11-11T15:45:43.661Z,4.99
2023-11-11T15:48:45.585Z,4.95
2023-11-11T15:51:48.306Z,5.03
2023-11-11T15:54:50.295Z,4.87
2023-11-11T15:57:52.292Z,4.82
2023-11-11T16:00:54.420Z,4.87
2023-11-11T16:03:56.479Z,4.76
2023-11-11T16:07:00.262Z,4.82
2023-11-11T16:10:02.237Z,4.76
2023-11-11T16:13:05.409Z,4.78
2023-11-11T16:16:07.505Z,4.74
2023-11-11T16:19:09.486Z,4.68
2023-11-11T16:22:11.489Z,4.82
2023-11-11T16:25:14.889Z,4.89
2023-11-11T16:28:16.854Z,4.97
2023-11-11T16:31:28.051Z,4.85
2023-11-11T16:34:30.121Z,4.74
2023-11-11T16:37:31.959Z,4.78
2023-11-11T16:40:34.092Z,4.78
2023-11-11T16:43:36.027Z,4.85
2023-11-11T16:46:38.359Z,4.88
2023-11-11T16:49:40.580Z,4.87
2023-11-11T16:52:42.488Z,4.90
2023-11-11T16:55:45.066Z,4.80
2023-11-11T16:58:49.494Z,4.89
2023-11-11T17:01:51.709Z,4.98
2023-11-11T17:04:53.737Z,4.97
2023-11-11T17:07:58.901Z,5.00
2023-11-11T17:11:02.502Z,5.02
2023-11-11T17:14:04.680Z,5.08
2023-11-11T17:17:07.270Z,5.10
2023-11-11T17:20:11.253Z,5.07
2023-11-11T17:23:13.848Z,5.04
2023-11-11T17:26:15.792Z,5.00
2023-11-11T17:29:17.597Z,5.08
2023-11-11T17:32:19.508Z,5.08
2023-11-11T17:35:21.714Z,4.98
2023-11-11T17:38:23.760Z,5.02
2023-11-11T17:41:25.718Z,5.04
2023-11-11T17:44:27.692Z,5.05
2023-11-11T17:47:29.716Z,5.10
2023-11-11T17:50:32.025Z,5.06
2023-11-11T17:53:33.987Z,5.04
2023-11-11T17:56:35.959Z,5.05
2023-11-11T17:59:40.952Z,5.09
2023-11-11T18:02:43.223Z,5.04
2023-11-11T18:05:45.325Z,5.10
2023-11-11T18:08:47.565Z,5.12
2023-11-11T18:11:49.687Z,5.14
2023-11-11T18:14:52.349Z,5.13
2023-11-11T18:17:54.309Z,5.13
2023-11-11T18:20:56.266Z,5.11
2023-11-11T18:23:58.214Z,5.07
2023-11-11T18:27:00.591Z,5.01
2023-11-11T18:30:02.631Z,4.98
2023-11-11T18:33:04.636Z,4.93
2023-11-11T18:36:09.277Z,4.90
2023-11-11T18:39:12.370Z,4.76
2023-11-11T18:42:14.352Z,4.81
2023-11-11T18:45:16.286Z,4.89
2023-11-11T18:48:18.371Z,4.75
2023-11-11T18:51:21.510Z,4.75
2023-11-11T18:54:24.470Z,4.72
2023-11-11T18:57:26.408Z,4.62
2023-11-11T19:00:28.351Z,4.67
2023-11-11T19:03:30.477Z,4.67
2023-11-11T19:06:33.828Z,4.66
2023-11-11T19:09:36.170Z,4.65
2023-11-11T19:12:38.198Z,4.72
2023-11-11T19:15:40.217Z,4.76
2023-11-11T19:18:42.224Z,4.84
2023-11-11T19:21:44.105Z,4.63
2023-11-11T19:24:46.490Z,4.71
2023-11-11T19:27:54.426Z,4.73
2023-11-11T19:30:56.534Z,4.77
2023-11-11T19:33:58.686Z,4.64
2023-11-11T19:37:00.902Z,4.68
2023-11-11T19:40:03.622Z,4.62
2023-11-11T19:43:06.316Z,4.75
2023-11-11T19:46:08.794Z,4.75
2023-11-11T19:49:10.993Z,4.73
2023-11-11T19:52:13.048Z,4.75
2023-11-11T19:55:15.617Z,4.81
2023-11-11T19:58:17.628Z,4.80
2023-11-11T20:01:19.681Z,4.76
2023-11-11T20:04:22.232Z,4.84
2023-11-11T20:07:24.191Z,4.80
2023-11-11T20:10:26.305Z,4.76
2023-11-11T20:13:28.978Z,4.70
2023-11-11T20:16:31.480Z,4.69
2023-11-11T20:19:33.617Z,4.74
2023-11-11T20:22:35.636Z,4.69
2023-11-11T20:25:37.997Z,4.72
2023-11-11T20:28:40.762Z,4.68
2023-11-11T20:31:43.261Z,4.68
2023-11-11T20:34:45.696Z,4.65
2023-11-11T20:37:49.442Z,4.70
2023-11-11T20:40:51.631Z,4.72
2023-11-11T20:43:53.841Z,4.62
2023-11-11T20:46:55.997Z,4.67
2023-11-11T20:49:57.985Z,4.64
2023-11-11T20:53:02.073Z,4.71
2023-11-11T20:56:04.426Z,4.65
2023-11-11T20:59:08.839Z,4.63
2023-11-11T21:02:11.084Z,4.64
2023-11-11T21:05:15.418Z,4.58
2023-11-11T21:08:17.533Z,4.51
2023-11-11T21:11:19.510Z,4.57
2023-11-11T21:14:23.087Z,4.47
2023-11-11T21:17:28.394Z,4.56
2023-11-11T21:20:30.480Z,4.48
2023-11-11T21:23:32.458Z,4.42
2023-11-11T21:26:34.717Z,4.53
2023-11-11T21:29:36.726Z,4.55
2023-11-11T21:32:39.021Z,4.49
2023-11-11T21:35:41.017Z,4.54
2023-11-11T21:38:43.175Z,4.47
2023-11-11T21:41:45.080Z,4.46
2023-11-11T21:44:47.042Z,4.36
2023-11-11T21:47:49.103Z,4.43
2023-11-11T21:50:54.290Z,4.50
2023-11-11T21:53:56.268Z,4.43
2023-11-11T21:56:58.269Z,4.39
2023-11-11T22:00:00.257Z,4.34
2023-11-11T22:03:02.498Z,4.39
2023-11-11T22:06:05.025Z,4.32
2023-11-11T22:09:07.229Z,4.38
2023-11-11T22:12:09.692Z,4.35
2023-11-11T22:15:12.039Z,4.32
2023-11-11T22:18:13.976Z,4.33
2023-11-11T22:21:17.075Z,4.33
2023-11-11T22:24:19.015Z,4.26
2023-11-11T22:27:21.968Z,4.21
2023-11-11T22:30:23.980Z,4.27
2023-11-11T22:33:25.962Z,4.26
2023-11-11T22:36:27.962Z,4.33
2023-11-11T22:39:29.886Z,4.32
2023-11-11T22:42:35.200Z,4.26
2023-11-11T22:45:37.223Z,4.17
2023-11-11T22:48:39.225Z,4.22
2023-11-11T22:51:41.166Z,4.17
2023-11-11T22:54:43.219Z,4.24
2023-11-11T22:57:48.250Z,4.24
2023-11-11T23:00:50.308Z,4.14
2023-11-11T23:03:53.019Z,4.22
2023-11-11T23:06:55.027Z,4.24
2023-11-11T23:09:59.152Z,4.17
2023-11-11T23:13:02.977Z,4.21
2023-11-11T23:16:05.573Z,4.20
2023-11-11T23:19:09.378Z,4.29
2023-11-11T23:22:11.402Z,4.24
2023-11-11T23:25:14.135Z,4.24
2023-11-11T23:28:18.585Z,4.17
2023-11-11T23:31:20.457Z,4.03
2023-11-11T23:34:23.423Z,4.00
2023-11-11T23:37:25.307Z,4.00
2023-11-11T23:40:27.596Z,4.11
2023-11-11T23:43:29.457Z,4.05
2023-11-11T23:46:34.601Z,4.01
2023-11-11T23:49:36.531Z,4.00
2023-11-11T23:52:38.451Z,3.98
2023-11-11T23:55:40.424Z,3.94
2023-11-11T23:58:42.332Z,4.00
